Impacts TAF Board
For situational awareness. Not to be used for flight planning purposes.
IDs:

KIAH - Houston/Bush Intl, TX, US

Issued at 1617 UTC 23 Sep 2020
Updated at 1713 UTC 23 Sep 2020
Potential Impact None Slight Moderate High
Time1653Z 23/18Z 23/19Z 23/20Z 23/21Z 23/22Z 23/23Z 24/00Z 24/01Z 24/02Z 24/03Z 24/04Z 24/05Z 24/06Z>>
Type OBS PRVL PRVL PRVL PRVL PRVL PRVL PRVL PRVL PRVL PRVL PRVL PRVL PRVL
VIS 10 5 5 5 5 5 5 >6 >6 >6 >6 >6 >6 >6
CIG 8 10 10 10 10 10 10 15 15 15 15 15 15 15
Cover OVC OVC OVC OVC OVC OVC OVC OVC OVC OVC OVC OVC OVC BKN
FltCat IFR MVFR MVFR MVFR MVFR MVFR MVFR MVFR MVFR MVFR MVFR MVFR MVFR MVFR
WX -- BR VCSH BR VCSH BR VCSH BR VCSH BR VCSH BR VCSH -- -- -- -- -- -- --
WDir 320 330 330 330 330 330 330 360 360 360 360 360 360 340
WSpd 13 12 12 12 12 12 12 10 10 10 10 10 10 6
WGst -- 18 18 18 18 18 18 -- -- -- -- -- -- --
R08/26
XWnd 10 10 10 10 10 10 10 10 10 10 10 10 10 6
XGst -- 16 16 16 16 16 16 -- -- -- -- -- -- --
HWnd -8 -6 -6 -6 -6 -6 -6 -0 -0 -0 -0 -0 -0 -2
HGst -- -9 -9 -9 -9 -9 -9 -- -- -- -- -- -- --
R09/27
XWnd 10 10 10 10 10 10 10 10 10 10 10 10 10 6
XGst -- 16 16 16 16 16 16 -- -- -- -- -- -- --
HWnd -8 -6 -6 -6 -6 -6 -6 -0 -0 -0 -0 -0 -0 -2
HGst -- -9 -9 -9 -9 -9 -9 -- -- -- -- -- -- --
R15/33
XWnd -3 -0 -0 -0 -0 -0 -0 5 5 5 5 5 5 1
XGst -- -1 -1 -1 -1 -1 -1 -- -- -- -- -- -- --
HWnd -13 -12 -12 -12 -12 -12 -12 -9 -9 -9 -9 -9 -9 -6
HGst -- -18 -18 -18 -18 -18 -18 -- -- -- -- -- -- --
Raw TAF
KIAH 231617Z 2316/2418 33011G18KT 4SM BR VCSH OVC008
  TEMPO 2316/2318 3SM -RA BR OVC005
  FM231800 33012G18KT 5SM BR VCSH OVC010
  FM240000 36010KT P6SM OVC015
  FM240600 34006KT P6SM BKN015 BKN050
  FM241500 35008KT P6SM SCT015


Raw METAR
KIAH 231653Z 32013KT 10SM OVC008 23/21 A2984 RMK AO2 SLP105 T02330211
KIAH 231553Z 33010KT 10SM OVC008 23/21 A2984 RMK AO2 DZE43 SLP104 P0000 T02280211
KIAH 231453Z 31010KT 5SM -DZ BR OVC006 22/21 A2983 RMK AO2 DZE35B51 SLP102 P0000 60002 T02220206 53021

METAR Board
Radar Display
Forecast Discussion
For situational awareness. Not to be used for flight planning purposes.